createdAt,value
2018-07-07T00:03:10.751Z,62.66
2018-07-07T00:09:16.382Z,63.48
2018-07-07T00:15:23.091Z,63.88
2018-07-07T00:21:29.298Z,64.73
2018-07-07T00:27:35.061Z,66.04
2018-07-07T00:33:41.245Z,66.05
2018-07-07T00:39:47.027Z,66.67
2018-07-07T00:45:53.112Z,67.79
2018-07-07T00:51:58.897Z,67.72
2018-07-07T00:58:04.613Z,69.06
2018-07-07T01:04:10.331Z,68.47
2018-07-07T01:10:16.349Z,69.72
2018-07-07T01:16:24.808Z,69.53
2018-07-07T01:22:30.592Z,69.93
2018-07-07T01:28:36.268Z,70.44
2018-07-07T01:34:42.011Z,70.89
2018-07-07T01:40:47.938Z,71.77
2018-07-07T01:46:53.970Z,71.96
2018-07-07T01:52:59.837Z,72.91
2018-07-07T01:59:05.820Z,73.84
2018-07-07T02:05:11.544Z,73.86
2018-07-07T02:11:17.278Z,75.12
2018-07-07T02:17:28.008Z,75.41
2018-07-07T02:23:33.717Z,75.99
2018-07-07T02:29:40.285Z,76.29
2018-07-07T02:35:46.243Z,75.87
2018-07-07T02:41:52.595Z,77.79
2018-07-07T02:47:58.506Z,77.11
2018-07-07T02:54:04.302Z,76.36
2018-07-07T03:00:10.017Z,76.24
2018-07-07T03:06:15.690Z,77.34
2018-07-07T03:12:21.669Z,76.66
2018-07-07T03:18:27.502Z,78.53
2018-07-07T03:24:33.246Z,78.95
2018-07-07T03:30:38.969Z,78.37
2018-07-07T03:36:44.627Z,78.74
2018-07-07T03:42:51.180Z,76.87
2018-07-07T03:48:57.607Z,76.05
2018-07-07T03:55:03.617Z,76.67
2018-07-07T04:01:09.356Z,76.88
2018-07-07T04:07:15.426Z,76.83
2018-07-07T04:13:21.428Z,76.83
2018-07-07T04:19:27.203Z,76.96
2018-07-07T04:25:32.861Z,75.97
2018-07-07T04:31:38.573Z,76.09
2018-07-07T04:37:44.289Z,76.05
2018-07-07T04:43:50.566Z,74.95
2018-07-07T04:49:56.822Z,75.14
2018-07-07T04:56:02.609Z,75.18
2018-07-07T05:02:08.353Z,74.30
2018-07-07T05:08:14.235Z,73.87
2018-07-07T05:14:19.980Z,71.27
2018-07-07T05:20:25.893Z,70.67
2018-07-07T05:26:31.704Z,69.81
2018-07-07T05:32:37.617Z,68.99
2018-07-07T05:38:43.943Z,68.40
2018-07-07T05:44:49.481Z,68.60
2018-07-07T05:50:55.351Z,68.10
2018-07-07T05:57:01.053Z,67.67
2018-07-07T06:03:07.081Z,67.23
2018-07-07T06:09:12.809Z,65.64
2018-07-07T06:15:18.491Z,65.33
2018-07-07T06:21:24.799Z,64.59
2018-07-07T06:27:30.588Z,64.37
2018-07-07T06:33:36.465Z,63.88
2018-07-07T06:39:42.145Z,64.83
2018-07-07T06:45:48.004Z,64.14
2018-07-07T07:08:13.860Z,64.88
2018-07-07T07:14:20.230Z,62.99
2018-07-07T07:20:27.009Z,61.57
2018-07-07T07:26:32.757Z,61.34
2018-07-07T07:32:38.742Z,62.03
2018-07-07T07:38:44.428Z,60.65
2018-07-07T07:44:50.092Z,59.09
2018-07-07T07:50:56.104Z,58.23
2018-07-07T07:57:01.739Z,58.69
2018-07-07T08:03:07.878Z,59.02
2018-07-07T08:09:13.569Z,58.06
2018-07-07T08:15:19.916Z,56.36
2018-07-07T08:21:25.943Z,55.85
2018-07-07T08:27:31.751Z,54.14
2018-07-07T08:33:37.579Z,53.16
2018-07-07T08:39:43.384Z,52.18
2018-07-07T08:45:49.177Z,52.52
2018-07-07T08:51:56.012Z,51.00
2018-07-07T08:58:02.098Z,50.45
2018-07-07T09:04:07.917Z,49.18
2018-07-07T09:10:13.843Z,50.63
2018-07-07T09:16:19.545Z,46.90
2018-07-07T09:22:25.348Z,46.64
2018-07-07T09:28:31.044Z,47.42
2018-07-07T09:34:36.695Z,47.21
2018-07-07T09:40:42.484Z,46.25
2018-07-07T09:46:48.151Z,46.12
2018-07-07T09:52:55.437Z,44.73
2018-07-07T09:59:01.650Z,44.54
2018-07-07T10:05:07.942Z,44.28
2018-07-07T10:11:13.712Z,41.11
2018-07-07T10:17:19.740Z,41.81
2018-07-07T10:23:26.142Z,38.67
2018-07-07T10:29:31.778Z,39.48
2018-07-07T10:35:37.403Z,39.43
2018-07-07T10:41:43.926Z,37.30
2018-07-07T10:47:50.356Z,37.73
2018-07-07T10:53:56.343Z,36.07
2018-07-07T11:00:01.981Z,37.80
2018-07-07T11:06:07.892Z,38.25
2018-07-07T11:12:13.916Z,34.45
2018-07-07T11:18:19.567Z,34.24
2018-07-07T11:24:26.198Z,34.00
2018-07-07T11:30:32.302Z,34.30
2018-07-07T11:36:38.282Z,31.90
2018-07-07T11:42:43.948Z,34.21
2018-07-07T11:48:49.833Z,34.43
2018-07-07T11:54:55.996Z,32.78
2018-07-07T12:01:01.731Z,34.65
2018-07-07T12:07:07.484Z,33.13
2018-07-07T12:13:13.287Z,31.64
2018-07-07T12:19:18.941Z,33.32
2018-07-07T12:25:25.153Z,31.40
2018-07-07T12:31:30.799Z,31.37
2018-07-07T12:37:36.523Z,31.80
2018-07-07T12:43:42.379Z,30.75
2018-07-07T12:49:48.041Z,32.08
2018-07-07T12:55:55.008Z,29.11
2018-07-07T13:02:00.692Z,32.24
2018-07-07T13:08:06.569Z,30.17
2018-07-07T13:14:12.490Z,29.70
2018-07-07T13:20:18.102Z,30.81
2018-07-07T13:26:24.671Z,31.47
2018-07-07T13:32:30.385Z,31.16
2018-07-07T13:38:37.485Z,30.11
2018-07-07T13:44:43.441Z,29.48
2018-07-07T13:50:49.186Z,28.50
2018-07-07T13:56:55.354Z,27.88
2018-07-07T14:03:01.378Z,27.53
2018-07-07T14:09:08.360Z,28.78
2018-07-07T14:15:13.981Z,26.67
2018-07-07T14:21:19.732Z,28.47
2018-07-07T14:27:25.720Z,27.33
2018-07-07T14:33:31.589Z,27.03
2018-07-07T14:40:00.398Z,28.23
2018-07-07T14:46:09.350Z,27.64
2018-07-07T14:52:15.452Z,28.28
2018-07-07T14:58:22.048Z,29.87
2018-07-07T15:04:27.784Z,27.74
2018-07-07T15:10:33.604Z,27.92
2018-07-07T15:16:39.307Z,29.68
2018-07-07T15:22:45.292Z,29.81
2018-07-07T15:28:51.267Z,29.52
2018-07-07T15:34:57.609Z,28.20
2018-07-07T15:41:03.580Z,28.43
2018-07-07T15:47:09.290Z,27.96
2018-07-07T15:53:15.145Z,27.41
2018-07-07T15:59:22.477Z,26.75
2018-07-07T16:05:28.318Z,27.01
2018-07-07T16:11:34.536Z,28.47
2018-07-07T16:17:40.370Z,28.87
2018-07-07T16:23:46.424Z,28.34
2018-07-07T16:29:54.018Z,30.00
2018-07-07T16:35:59.914Z,28.36
2018-07-07T16:42:05.654Z,24.54
2018-07-07T16:48:11.447Z,23.54
2018-07-07T16:54:20.077Z,22.19
2018-07-07T17:00:27.565Z,23.39
2018-07-07T17:06:33.807Z,23.12
2018-07-07T17:12:39.879Z,21.64
2018-07-07T17:18:46.161Z,21.87
2018-07-07T17:24:53.985Z,21.73
2018-07-07T17:31:02.303Z,21.31
2018-07-07T17:37:08.106Z,22.53
2018-07-07T17:43:14.081Z,21.96
2018-07-07T17:49:19.901Z,23.00
2018-07-07T17:55:27.090Z,22.92
2018-07-07T18:01:33.425Z,24.30
2018-07-07T18:07:39.232Z,23.99
2018-07-07T18:13:44.945Z,25.53
2018-07-07T18:19:51.267Z,26.43
2018-07-07T18:25:57.068Z,28.95
2018-07-07T18:32:02.726Z,30.19
2018-07-07T18:38:08.741Z,32.24
2018-07-07T18:44:14.541Z,33.26
2018-07-07T18:50:20.315Z,34.85
2018-07-07T18:56:26.170Z,36.11
2018-07-07T19:02:31.779Z,38.70
2018-07-07T19:08:37.533Z,40.09
2018-07-07T19:14:43.356Z,41.59
2018-07-07T19:20:54.180Z,42.39
2018-07-07T19:27:03.711Z,43.61
2018-07-07T19:33:14.596Z,44.89
2018-07-07T19:39:20.399Z,45.17
2018-07-07T19:45:26.433Z,45.76
2018-07-07T19:51:33.173Z,46.59
2018-07-07T19:57:38.880Z,48.22
2018-07-07T20:03:44.689Z,49.24
2018-07-07T20:09:50.518Z,50.04
2018-07-07T20:16:21.209Z,51.44
2018-07-07T20:22:27.148Z,52.02
2018-07-07T20:28:38.095Z,53.09
2018-07-07T20:34:43.755Z,53.53
2018-07-07T20:40:50.453Z,53.77
2018-07-07T20:46:55.984Z,53.50
2018-07-07T20:53:01.543Z,54.19
2018-07-07T20:59:07.389Z,54.51
2018-07-07T21:05:13.190Z,55.29
2018-07-07T21:11:19.166Z,55.81
2018-07-07T21:17:25.520Z,56.48
2018-07-07T21:23:31.231Z,57.06
2018-07-07T21:29:36.921Z,58.25
2018-07-07T21:35:42.663Z,59.66
2018-07-07T21:41:48.548Z,59.99
2018-07-07T21:47:55.737Z,61.70
2018-07-07T21:54:02.007Z,61.49
2018-07-07T22:00:07.367Z,61.94
2018-07-07T22:06:13.707Z,62.21
2018-07-07T22:12:19.623Z,62.65
2018-07-07T22:18:26.030Z,62.50
2018-07-07T22:24:31.877Z,62.88
2018-07-07T22:30:37.720Z,62.11
2018-07-07T22:36:43.458Z,61.96
2018-07-07T22:42:49.819Z,62.83
2018-07-07T22:48:56.339Z,63.05
2018-07-07T22:55:02.096Z,62.43
2018-07-07T23:01:08.024Z,62.15
2018-07-07T23:07:14.128Z,62.91
2018-07-07T23:13:20.155Z,63.42
2018-07-07T23:19:26.055Z,64.38
2018-07-07T23:25:31.762Z,65.20
2018-07-07T23:31:37.529Z,65.00
2018-07-07T23:37:43.532Z,65.23
2018-07-07T23:43:49.676Z,65.06
2018-07-07T23:49:55.445Z,66.19
2018-07-07T23:56:01.256Z,66.20
